Airfield :
LOGIN :

Register | Disclaimer

   EN    FR    IT 

 










Legend :    VFR   Marginal VFR   IFR   Intensive IFR   Very Intensive IFR
Visi :
Ceiling :
>= 8 km
>= 3000ft
5 to 8 km
1000 to 3000 ft
1500m to 5 km
500 to 1000 ft
800 to 1500m
200 to 500 ft
< 800m
< 200 ft
Symbols :   Thunderstorms  Fog  Heavy snow  Heavy precipitations  Wind > 20 kt
SIGMETs :     Misc.  Thunderstorms  Icing  Turbulence  Mountain Waves  Volcanic Ashes






- Airport Elevation : 240 ft
- IATA code : VLC


LEVC - Valencia Manises

CURRENT METAR :
  • 130530Z 26013KT 9999 SCT035 17/10 Q1007 NOSIG

EXPIRED METARs :
  • 130500Z 25017KT 9999 SCT035 17/10 Q1007 NOSIG
  • 130430Z 25015KT 9999 BKN035 16/10 Q1007 NOSIG
  • 130400Z 25015KT 220V280 9999 FEW035 16/10 Q1007 NOSIG
  • 130330Z 25017KT 9999 FEW035 16/10 Q1007 NOSIG
  • 130300Z 25016KT 9999 FEW035 16/09 Q1007 NOSIG

TAF TAF LEVC
Valid from the 13 at 06:00 until the 14 at 06:00 UTC


130500Z 1306/1406 27015KT 9999 FEW030 TX20/1313Z TN13/1306Z
TEMPO 1306/1308 26018G28KT
TEMPO 1308/1317 27025G35KT
BECMG 1322/1324 25007KT



MET'MAP, your aeronautical weather chart ! - Copyright ORBIFLY December 2007 - Disclaimer

ORBIFLY MET'MAP TEAM :

Programming & Development : Alexandra Zaïnal
Concept & original design : Baudouin d'Aumeries
Assistance for programming : Marc-Olivier Méhu
Technical & hardware support : Manuel Goepfert

Contact : metmap@orbifly.com




SOURCES & CREDITS :

   NOAA